Amistad, New Mexico
Current Conditions -  °F | °C
As of 10:53 PM on Tuesday 27 Jan 2015 (Local Time) from KDHT Reporting Station
Clear Clear  
Wind Chill: 33°   Ceiling: Unl
Heat Index: 39°   Visibility: 10mi
Dew Point: 33°   Wind: 9mph
Humidity: 79%   Direction: 210°SSW
Pressure: 30.06"   Gusts: NA
Location:  35.92°N, 103.16°W
Report Text: KDHT 280553Z AUTO 21008KT 10SM CLR 04/01 A3006 RMK AO2 SLP154 T00390006 10144 20039 402220039 57009
Loading
Personal Weather Stations






























Interactive Weather Map New forecast layout! Learn more

10-Day Weather Forecast

Advertisements
Track Severe Weather on mobile